Time;durP1;ratioP1;P1;durP2;ratioP2;P2;SDS_P1;SDS_P2;PMS_P1;PMS_P2;Temp;Humidity;BMP_temperature;BMP_pressure;BME280_temperature;BME280_humidity;BME280_pressure;Samples;Min_cycle;Max_cycle;Signal;HPM_P1;HPM_P2
2022/05/18 00:02:07;;;;;;;;;;;;;;;24.48;100.00;99329.41;5025576;28;19928;-38
2022/05/18 00:04:32;;;;;;;;;;;;;;;24.31;100.00;99333.41;5023039;28;19921;-38
2022/05/18 00:06:57;;;;;;;;;;;;;;;24.97;100.00;99333.09;5023935;28;19931;-39
2022/05/18 00:09:22;;;;;;;;;;;;;;;24.25;100.00;99335.75;5023452;28;19944;-38
2022/05/18 00:11:48;;;;;;;;;;;;;;;24.49;100.00;99325.78;5022710;28;19925;-38
2022/05/18 00:14:13;;;;;;;;;;;;;;;24.39;100.00;99330.97;5025596;28;19921;-38
2022/05/18 00:16:38;;;;;;;;;;;;;;;23.94;100.00;99333.00;5021282;28;20429;-38
2022/05/18 00:19:04;;;;;;;;;;;;;;;24.52;100.00;99325.56;5024636;28;19971;-39
2022/05/18 00:21:30;;;;;;;;;;;;;;;24.66;100.00;99328.81;5026467;28;19925;-38
2022/05/18 00:23:56;;;;;;;;;;;;;;;24.02;100.00;99341.13;5025354;28;19960;-38
2022/05/18 00:26:22;;;;;;;;;;;;;;;23.77;100.00;99337.03;5030365;28;20382;-39
2022/05/18 00:28:47;;;;;;;;;;;;;;;23.51;100.00;99336.47;5026758;28;20555;-39
2022/05/18 00:31:12;;;;;;;;;;;;;;;24.27;100.00;99329.38;5030398;28;19925;-39
2022/05/18 00:33:38;;;;;;;;;;;;;;;23.56;100.00;99334.28;5027266;28;19921;-39
2022/05/18 00:36:03;;;;;;;;;;;;;;;24.12;100.00;99326.22;5032430;28;20004;-40
2022/05/18 00:38:28;;;;;;;;;;;;;;;23.75;100.00;99329.25;5031467;28;20012;-39
2022/05/18 00:40:53;;;;;;;;;;;;;;;24.25;100.00;99330.47;5026849;28;19920;-38
2022/05/18 00:43:19;;;;;;;;;;;;;;;24.09;100.00;99326.50;5028275;28;19924;-39
2022/05/18 00:45:44;;;;;;;;;;;;;;;24.06;100.00;99331.16;5028063;28;19921;-38
2022/05/18 00:48:09;;;;;;;;;;;;;;;24.07;100.00;99331.03;5028349;28;19925;-39
2022/05/18 00:50:35;;;;;;;;;;;;;;;23.31;100.00;99340.69;5032182;28;19978;-38
2022/05/18 00:53:06;;;;;;;;;;;;;;;24.10;100.00;99333.41;5023084;28;19921;-38
2022/05/18 00:55:33;;;;;;;;;;;;;;;23.84;100.00;99334.75;5030299;28;19943;-39
2022/05/18 00:58:07;;;;;;;;;;;;;;;24.33;100.00;99334.13;5008207;28;19929;-39
2022/05/18 01:00:34;;;;;;;;;;;;;;;24.09;100.00;99336.19;5028156;28;19924;-38
2022/05/18 01:03:00;;;;;;;;;;;;;;;23.70;100.00;99326.16;5027895;28;20394;-39
2022/05/18 01:05:27;;;;;;;;;;;;;;;24.09;100.00;99334.38;5026954;28;19917;-39
2022/05/18 01:07:52;;;;;;;;;;;;;;;24.20;100.00;99336.13;5025836;28;19920;-39
2022/05/18 01:10:18;;;;;;;;;;;;;;;24.07;100.00;99335.47;5026246;28;19924;-39
2022/05/18 01:12:45;;;;;;;;;;;;;;;23.90;100.00;99336.84;5025933;28;19921;-38
2022/05/18 01:15:11;;;;;;;;;;;;;;;23.89;100.00;99340.44;5026689;28;20504;-38
2022/05/18 01:17:37;;;;;;;;;;;;;;;23.82;100.00;99334.03;5005927;28;19965;-38
2022/05/18 01:20:07;;;;;;;;;;;;;;;23.65;100.00;99340.59;5007452;28;20005;-39
2022/05/18 01:22:38;;;;;;;;;;;;;;;23.73;100.00;99335.56;5025025;28;20267;-38
2022/05/18 01:25:22;;;;;;;;;;;;;;;24.17;100.00;99339.81;5027330;28;19921;-39
2022/05/18 01:27:47;;;;;;;;;;;;;;;23.58;100.00;99337.63;5025060;28;20019;-38
2022/05/18 01:30:13;;;;;;;;;;;;;;;23.57;100.00;99335.97;5026377;28;20301;-38
2022/05/18 01:32:45;;;;;;;;;;;;;;;23.48;100.00;99342.81;5021371;28;19951;-38
2022/05/18 01:35:11;;;;;;;;;;;;;;;23.70;100.00;99334.03;5025169;28;21006;-38
2022/05/18 01:37:36;;;;;;;;;;;;;;;23.79;100.00;99343.84;5025689;28;19971;-39
2022/05/18 01:40:04;;;;;;;;;;;;;;;23.87;100.00;99342.38;5023196;28;19921;-38
2022/05/18 01:42:37;;;;;;;;;;;;;;;23.71;100.00;99342.75;5008272;28;19916;-38
2022/05/18 01:45:02;;;;;;;;;;;;;;;24.07;100.00;99343.38;5008063;28;20001;-39
2022/05/18 01:47:32;;;;;;;;;;;;;;;23.69;100.00;99345.50;5007234;28;20422;-38
2022/05/18 01:49:57;;;;;;;;;;;;;;;23.48;100.00;99347.22;5024942;28;20074;-39
2022/05/18 01:52:22;;;;;;;;;;;;;;;23.17;100.00;99355.78;5014651;28;20477;-39
2022/05/18 01:54:48;;;;;;;;;;;;;;;23.31;100.00;99343.31;5033727;28;20697;-39
2022/05/18 01:57:13;;;;;;;;;;;;;;;23.77;100.00;99343.13;5032747;28;19929;-38
2022/05/18 01:59:38;;;;;;;;;;;;;;;23.49;100.00;99347.13;5034991;28;19928;-38
2022/05/18 02:02:04;;;;;;;;;;;;;;;23.82;100.00;99340.13;5023894;28;19924;-38
2022/05/18 02:04:32;;;;;;;;;;;;;;;23.68;100.00;99343.84;5024485;28;19916;-38
2022/05/18 02:06:57;;;;;;;;;;;;;;;23.67;100.00;99341.31;5022824;28;20019;-38
2022/05/18 02:09:23;;;;;;;;;;;;;;;23.52;100.00;99343.41;5027516;28;19921;-38
2022/05/18 02:11:48;;;;;;;;;;;;;;;23.48;100.00;99349.88;5021966;28;19921;-39
2022/05/18 02:14:13;;;;;;;;;;;;;;;23.66;100.00;99345.75;5007585;28;19924;-38
2022/05/18 02:16:38;;;;;;;;;;;;;;;23.35;100.00;99348.19;5022459;28;19925;-39
2022/05/18 02:19:04;;;;;;;;;;;;;;;23.13;100.00;99348.25;5022620;28;19964;-39
2022/05/18 02:21:29;;;;;;;;;;;;;;;23.82;100.00;99353.25;5023682;28;19979;-38
2022/05/18 02:23:54;;;;;;;;;;;;;;;23.67;100.00;99347.41;5024845;28;19921;-38
2022/05/18 02:26:21;;;;;;;;;;;;;;;23.68;100.00;99349.09;5025125;28;19928;-38
2022/05/18 02:28:46;;;;;;;;;;;;;;;23.21;100.00;99351.09;5023219;28;20007;-38
2022/05/18 02:31:11;;;;;;;;;;;;;;;23.32;100.00;99348.44;5022748;28;19931;-38
2022/05/18 02:33:37;;;;;;;;;;;;;;;22.96;100.00;99357.41;5025141;28;19920;-38
2022/05/18 02:36:02;;;;;;;;;;;;;;;24.03;100.00;99348.03;5023117;28;19921;-38
2022/05/18 02:38:28;;;;;;;;;;;;;;;22.87;100.00;99343.19;5024621;28;20259;-38
2022/05/18 02:40:56;;;;;;;;;;;;;;;23.10;100.00;99348.47;5021454;28;19948;-38
2022/05/18 02:43:21;;;;;;;;;;;;;;;23.08;100.00;99353.00;5025883;28;19924;-38
2022/05/18 02:45:46;;;;;;;;;;;;;;;23.49;100.00;99355.00;5026038;28;19982;-38
2022/05/18 02:48:11;;;;;;;;;;;;;;;23.25;100.00;99355.16;5027269;28;19924;-38
2022/05/18 02:50:37;;;;;;;;;;;;;;;22.68;100.00;99362.16;5024950;28;19920;-38
2022/05/18 02:53:02;;;;;;;;;;;;;;;23.14;100.00;99352.53;5024870;28;19924;-38
2022/05/18 02:58:11;;;;;;;;;;;;;;;22.75;100.00;99359.91;5022616;28;19948;-39
2022/05/18 03:00:37;;;;;;;;;;;;;;;22.52;100.00;99354.59;5005091;28;19917;-38
2022/05/18 03:03:02;;;;;;;;;;;;;;;22.91;100.00;99354.31;5024131;28;19927;-38
2022/05/18 03:05:27;;;;;;;;;;;;;;;22.65;100.00;99359.78;5023533;28;19921;-38
2022/05/18 03:07:53;;;;;;;;;;;;;;;22.81;100.00;99364.69;5020753;28;20794;-39
2022/05/18 03:10:18;;;;;;;;;;;;;;;22.96;100.00;99363.47;5025090;28;20053;-39
2022/05/18 03:12:44;;;;;;;;;;;;;;;23.08;100.00;99361.75;5023046;28;19930;-38
2022/05/18 03:15:10;;;;;;;;;;;;;;;22.82;100.00;99376.03;5022717;28;20313;-38
2022/05/18 03:17:35;;;;;;;;;;;;;;;23.11;100.00;99371.19;5022947;28;19928;-38
2022/05/18 03:20:00;;;;;;;;;;;;;;;23.06;100.00;99368.03;5002565;28;19983;-38
2022/05/18 03:25:09;;;;;;;;;;;;;;;22.90;100.00;99374.47;5020223;28;20042;-38
2022/05/18 03:27:34;;;;;;;;;;;;;;;22.95;100.00;99377.56;5020221;28;20023;-39
2022/05/18 03:30:00;;;;;;;;;;;;;;;23.12;100.00;99370.19;5004171;28;19968;-38
2022/05/18 03:32:25;;;;;;;;;;;;;;;22.94;100.00;99375.06;5017293;28;19928;-39
2022/05/18 03:34:50;;;;;;;;;;;;;;;22.76;100.00;99372.06;5024017;28;19929;-38
2022/05/18 03:37:16;;;;;;;;;;;;;;;23.27;100.00;99370.81;5020761;28;19933;-38
2022/05/18 03:39:41;;;;;;;;;;;;;;;22.44;100.00;99370.13;5018957;28;19931;-38
2022/05/18 03:42:07;;;;;;;;;;;;;;;22.76;100.00;99369.44;5021852;28;19921;-38
2022/05/18 03:44:32;;;;;;;;;;;;;;;23.05;100.00;99358.50;5019704;28;19921;-39
2022/05/18 03:46:57;;;;;;;;;;;;;;;23.22;100.00;99359.81;5020889;28;19956;-39
2022/05/18 03:49:22;;;;;;;;;;;;;;;23.17;100.00;99365.41;5020807;28;20016;-38
2022/05/18 03:51:49;;;;;;;;;;;;;;;22.86;100.00;99367.78;5018552;28;20012;-38
2022/05/18 03:54:14;;;;;;;;;;;;;;;22.96;100.00;99363.47;5019526;28;20026;-39
2022/05/18 03:56:39;;;;;;;;;;;;;;;22.52;100.00;99370.34;5023206;28;20094;-38
2022/05/18 03:59:04;;;;;;;;;;;;;;;23.03;100.00;99370.91;5023460;28;19925;-39
2022/05/18 04:01:30;;;;;;;;;;;;;;;22.77;100.00;99376.38;5024313;28;19921;-39
2022/05/18 04:03:55;;;;;;;;;;;;;;;23.09;100.00;99367.81;5029972;28;19959;-38
2022/05/18 04:06:20;;;;;;;;;;;;;;;23.23;100.00;99372.81;5025201;28;20856;-39
2022/05/18 04:08:45;;;;;;;;;;;;;;;23.65;100.00;99372.16;5026131;28;19954;-39
2022/05/18 04:11:11;;;;;;;;;;;;;;;23.26;100.00;99385.72;5028265;28;19967;-39
2022/05/18 04:13:36;;;;;;;;;;;;;;;23.02;100.00;99387.66;5028960;28;19966;-38
2022/05/18 04:16:02;;;;;;;;;;;;;;;23.27;100.00;99387.41;5028542;28;19921;-39
2022/05/18 04:18:27;;;;;;;;;;;;;;;23.26;100.00;99390.97;5026167;28;19925;-38
2022/05/18 04:20:53;;;;;;;;;;;;;;;22.93;100.00;99397.88;5027321;28;19921;-39
2022/05/18 04:23:18;;;;;;;;;;;;;;;23.26;100.00;99396.22;5024977;28;19960;-39
2022/05/18 04:25:43;;;;;;;;;;;;;;;23.20;100.00;99391.47;5026945;28;19921;-38
2022/05/18 04:28:12;;;;;;;;;;;;;;;23.46;100.00;99391.22;5025818;28;19916;-39
2022/05/18 04:30:38;;;;;;;;;;;;;;;23.60;100.00;99393.56;5012376;28;20286;-39
2022/05/18 04:33:04;;;;;;;;;;;;;;;23.13;100.00;99388.50;5008292;28;20007;-38
2022/05/18 04:35:29;;;;;;;;;;;;;;;23.36;100.00;99399.81;5028063;28;19964;-39
2022/05/18 04:37:54;;;;;;;;;;;;;;;23.87;100.00;99393.16;5025583;28;19995;-39
2022/05/18 04:40:20;;;;;;;;;;;;;;;23.48;100.00;99405.91;5033569;28;19943;-39
2022/05/18 04:42:45;;;;;;;;;;;;;;;23.61;100.00;99403.13;5039110;28;19931;-39
2022/05/18 04:45:11;;;;;;;;;;;;;;;24.12;100.00;99402.53;5036873;28;19929;-38
2022/05/18 04:47:37;;;;;;;;;;;;;;;23.84;100.00;99414.47;5036481;28;19928;-38
2022/05/18 04:50:02;;;;;;;;;;;;;;;23.54;100.00;99415.09;5035628;28;19921;-39
2022/05/18 04:52:28;;;;;;;;;;;;;;;23.91;100.00;99406.94;5037626;28;20460;-39
2022/05/18 04:54:54;;;;;;;;;;;;;;;23.64;100.00;99409.94;5031963;28;20401;-39
2022/05/18 04:57:19;;;;;;;;;;;;;;;23.89;100.00;99414.94;5030473;28;19931;-39
2022/05/18 04:59:45;;;;;;;;;;;;;;;23.75;100.00;99408.16;5035101;28;20426;-38
2022/05/18 05:02:11;;;;;;;;;;;;;;;23.32;100.00;99422.03;5035154;28;20310;-38
2022/05/18 05:04:36;;;;;;;;;;;;;;;23.80;100.00;99419.13;5027007;28;19917;-38
2022/05/18 05:07:01;;;;;;;;;;;;;;;23.80;100.00;99421.75;5029157;28;19931;-39
2022/05/18 05:09:27;;;;;;;;;;;;;;;24.15;100.00;99423.34;5025636;28;19921;-38
2022/05/18 05:11:52;;;;;;;;;;;;;;;24.05;100.00;99426.84;5027696;28;19948;-38
2022/05/18 05:14:18;;;;;;;;;;;;;;;24.05;100.00;99432.94;5026776;28;20001;-39
2022/05/18 05:16:43;;;;;;;;;;;;;;;23.76;100.00;99436.09;5018301;28;19925;-39
2022/05/18 05:19:08;;;;;;;;;;;;;;;24.00;100.00;99438.56;5010824;28;20572;-39
2022/05/18 05:21:35;;;;;;;;;;;;;;;23.98;100.00;99445.75;5024510;28;20003;-39
2022/05/18 05:24:01;;;;;;;;;;;;;;;24.28;100.00;99446.03;5005384;28;19960;-39
2022/05/18 05:26:26;;;;;;;;;;;;;;;24.51;100.00;99447.63;5028266;28;20039;-38
2022/05/18 05:28:51;;;;;;;;;;;;;;;24.33;100.00;99443.84;5011797;28;19917;-38
2022/05/18 05:31:16;;;;;;;;;;;;;;;24.48;100.00;99450.53;5006844;28;19948;-38
2022/05/18 05:33:42;;;;;;;;;;;;;;;24.73;100.00;99451.13;5026716;28;19925;-39
2022/05/18 05:36:08;;;;;;;;;;;;;;;24.77;100.00;99452.50;5026333;28;19925;-39
2022/05/18 05:38:33;;;;;;;;;;;;;;;24.77;100.00;99452.50;5006407;28;19928;-39
2022/05/18 05:41:01;;;;;;;;;;;;;;;25.15;100.00;99445.78;5025787;28;19975;-39
2022/05/18 05:43:27;;;;;;;;;;;;;;;25.05;100.00;99451.84;5026439;28;19916;-38
2022/05/18 05:45:59;;;;;;;;;;;;;;;25.16;100.00;99448.31;5026381;28;19921;-39
2022/05/18 05:48:24;;;;;;;;;;;;;;;24.93;100.00;99446.78;5026260;28;19921;-39
2022/05/18 05:50:50;;;;;;;;;;;;;;;25.66;100.00;99458.94;5038365;28;19959;-39
2022/05/18 05:53:15;;;;;;;;;;;;;;;25.52;100.00;99455.81;5041755;28;19916;-47
2022/05/18 05:55:40;;;;;;;;;;;;;;;25.97;99.43;99450.16;5037713;28;20556;-45
2022/05/18 05:58:05;;;;;;;;;;;;;;;25.47;100.00;99456.22;5039134;28;19995;-45
2022/05/18 06:00:31;;;;;;;;;;;;;;;25.51;100.00;99459.44;5040231;28;19916;-44
2022/05/18 06:02:56;;;;;;;;;;;;;;;26.48;97.57;99467.56;5037690;28;19924;-45
2022/05/18 06:05:21;;;;;;;;;;;;;;;26.66;95.23;99465.91;5033635;28;19921;-44
2022/05/18 06:07:46;;;;;;;;;;;;;;;26.37;95.89;99465.88;5038996;28;20450;-44
2022/05/18 06:10:12;;;;;;;;;;;;;;;26.82;94.35;99465.34;5019986;28;20435;-46
2022/05/18 06:12:38;;;;;;;;;;;;;;;26.85;93.42;99458.94;5024535;28;20396;-46
2022/05/18 06:15:04;;;;;;;;;;;;;;;26.80;94.06;99471.72;5022868;28;20453;-46
2022/05/18 06:17:29;;;;;;;;;;;;;;;26.87;93.07;99470.19;5007737;28;20418;-44
2022/05/18 06:19:54;;;;;;;;;;;;;;;26.31;96.21;99476.16;5029868;28;19924;-44
2022/05/18 06:22:20;;;;;;;;;;;;;;;26.44;94.47;99471.44;5022545;28;19925;-48
2022/05/18 06:24:47;;;;;;;;;;;;;;;26.14;96.52;99472.38;5024718;28;20109;-46
2022/05/18 06:27:13;;;;;;;;;;;;;;;26.64;94.30;99473.16;5027560;28;19950;-45
2022/05/18 06:29:38;;;;;;;;;;;;;;;25.91;95.52;99480.56;5026537;28;19921;-45
2022/05/18 06:32:04;;;;;;;;;;;;;;;26.26;95.88;99479.22;5028174;28;19924;-44
2022/05/18 06:34:29;;;;;;;;;;;;;;;26.40;95.83;99475.34;5025191;28;19956;-48
2022/05/18 06:36:54;;;;;;;;;;;;;;;26.49;95.40;99482.44;5013971;28;20012;-45
2022/05/18 06:39:20;;;;;;;;;;;;;;;26.09;95.71;99483.34;5027797;28;19970;-46
2022/05/18 06:41:46;;;;;;;;;;;;;;;26.36;95.17;99479.22;5004139;28;19963;-45
2022/05/18 06:44:11;;;;;;;;;;;;;;;26.58;95.11;99478.97;5008739;28;19928;-46
2022/05/18 06:46:37;;;;;;;;;;;;;;;26.53;96.39;99483.81;5023154;28;19921;-45
2022/05/18 06:49:03;;;;;;;;;;;;;;;26.96;94.12;99477.28;5022200;28;19923;-44
2022/05/18 06:51:30;;;;;;;;;;;;;;;26.85;91.82;99469.50;5027209;28;20289;-44
2022/05/18 06:53:56;;;;;;;;;;;;;;;26.68;93.62;99481.59;5026248;28;19916;-47
2022/05/18 06:56:22;;;;;;;;;;;;;;;27.21;91.11;99467.06;5020438;28;19920;-45
2022/05/18 06:58:48;;;;;;;;;;;;;;;27.10;88.31;99476.81;5028884;28;19927;-44
2022/05/18 07:01:13;;;;;;;;;;;;;;;27.31;90.13;99466.06;5023551;28;19924;-46
2022/05/18 07:03:39;;;;;;;;;;;;;;;27.04;92.33;99468.63;5026265;28;19921;-46
2022/05/18 07:06:04;;;;;;;;;;;;;;;28.36;85.52;99464.75;5023935;28;19921;-45
2022/05/18 07:08:30;;;;;;;;;;;;;;;28.06;87.54;99465.97;5007308;28;19943;-45
2022/05/18 07:10:55;;;;;;;;;;;;;;;28.31;86.22;99469.69;5022462;28;20757;-44
2022/05/18 07:13:20;;;;;;;;;;;;;;;28.50;84.48;99467.88;5023411;28;19921;-45
2022/05/18 07:15:45;;;;;;;;;;;;;;;29.50;81.59;99471.03;5023096;28;20382;-44
2022/05/18 07:18:11;;;;;;;;;;;;;;;29.64;79.31;99467.78;5023839;28;19928;-44
2022/05/18 07:20:36;;;;;;;;;;;;;;;28.75;79.81;99472.38;5022335;28;19925;-45
2022/05/18 07:23:01;;;;;;;;;;;;;;;28.81;79.38;99470.09;5023326;28;20726;-47
2022/05/18 07:25:26;;;;;;;;;;;;;;;29.21;77.03;99466.91;5023395;28;19921;-46
2022/05/18 07:27:51;;;;;;;;;;;;;;;29.73;78.05;99468.66;5025181;28;19921;-45
2022/05/18 07:30:17;;;;;;;;;;;;;;;29.53;77.56;99468.06;5023574;28;20384;-47
2022/05/18 07:32:42;;;;;;;;;;;;;;;29.66;78.06;99464.97;5003766;28;19921;-46
2022/05/18 07:35:07;;;;;;;;;;;;;;;29.99;72.96;99460.59;5028101;28;19923;-45
2022/05/18 07:37:33;;;;;;;;;;;;;;;29.45;75.83;99463.56;5024411;28;19925;-45
2022/05/18 07:39:58;;;;;;;;;;;;;;;29.66;73.24;99464.97;5021070;28;19928;-48
2022/05/18 07:42:24;;;;;;;;;;;;;;;29.69;73.78;99464.66;5023629;28;19924;-47
2022/05/18 07:44:49;;;;;;;;;;;;;;;30.81;71.54;99466.81;5022727;28;19921;-44
2022/05/18 07:47:14;;;;;;;;;;;;;;;30.39;71.58;99465.16;5019392;28;19921;-45
2022/05/18 07:49:40;;;;;;;;;;;;;;;29.97;68.43;99466.09;5020796;28;19967;-45
2022/05/18 07:52:06;;;;;;;;;;;;;;;29.55;71.79;99464.25;5021147;28;19970;-44
2022/05/18 07:54:32;;;;;;;;;;;;;;;30.19;69.43;99461.13;5005070;28;19921;-46
2022/05/18 07:56:57;;;;;;;;;;;;;;;30.10;68.24;99462.13;5021168;28;19928;-46
2022/05/18 07:59:22;;;;;;;;;;;;;;;30.53;68.31;99460.19;5025667;28;19920;-47
2022/05/18 08:01:48;;;;;;;;;;;;;;;30.38;66.25;99466.19;5027415;28;20163;-47
2022/05/18 08:04:13;;;;;;;;;;;;;;;30.84;66.94;99465.66;5021413;28;20324;-46
2022/05/18 08:06:39;;;;;;;;;;;;;;;31.25;64.79;99457.63;5022614;28;19947;-44
2022/05/18 08:09:04;;;;;;;;;;;;;;;31.87;62.00;99462.19;5023933;28;19917;-49
2022/05/18 08:16:57;;;;;;;;;;;;;;;31.53;60.92;99466.00;5024273;28;19959;-47
2022/05/18 08:19:22;;;;;;;;;;;;;;;31.08;61.97;99464.78;5022019;28;19951;-45
2022/05/18 08:21:48;;;;;;;;;;;;;;;31.79;60.16;99470.22;5023255;28;19917;-46
2022/05/18 08:24:13;;;;;;;;;;;;;;;32.39;61.04;99456.19;5022863;28;19916;-45
2022/05/18 08:26:41;;;;;;;;;;;;;;;32.28;55.86;99461.94;5022597;28;20731;-45
2022/05/18 08:29:06;;;;;;;;;;;;;;;32.39;59.26;99464.19;5023095;28;20438;-46
2022/05/18 08:31:32;;;;;;;;;;;;;;;32.45;61.05;99457.31;5021422;28;19920;-45
2022/05/18 08:33:57;;;;;;;;;;;;;;;32.69;63.54;99464.31;5019787;28;20011;-45
2022/05/18 08:36:24;;;;;;;;;;;;;;;32.01;61.01;99461.47;5019310;28;19947;-46
2022/05/18 08:38:49;;;;;;;;;;;;;;;32.69;54.36;99464.31;5023332;28;20224;-46
2022/05/18 08:41:25;;;;;;;;;;;;;;;32.86;56.15;99465.78;5019999;28;19924;-46
2022/05/18 08:43:52;;;;;;;;;;;;;;;33.22;55.17;99465.13;5014164;28;20079;-45
2022/05/18 08:46:36;;;;;;;;;;;;;;;32.88;54.53;99465.63;5016787;28;19921;-44
2022/05/18 08:49:12;;;;;;;;;;;;;;;33.74;56.12;99468.69;5032973;28;19958;-45
2022/05/18 08:51:45;;;;;;;;;;;;;;;33.64;55.83;99458.31;5009180;28;19917;-45
2022/05/18 08:54:17;;;;;;;;;;;;;;;33.38;53.48;99471.28;5013788;28;19972;-44
2022/05/18 08:56:43;;;;;;;;;;;;;;;33.31;54.84;99471.19;5032273;28;19939;-45
2022/05/18 08:59:10;;;;;;;;;;;;;;;33.81;52.04;99468.75;5017150;28;19921;-43
2022/05/18 09:01:37;;;;;;;;;;;;;;;34.24;53.95;99460.81;5031129;28;19924;-47
2022/05/18 09:04:06;;;;;;;;;;;;;;;34.51;54.93;99472.56;5027522;28;20007;-48
2022/05/18 09:06:33;;;;;;;;;;;;;;;35.50;48.50;99455.53;5011460;28;20301;-47
2022/05/18 09:12:09;;;;;;;;;;;;;;;35.15;49.92;99466.31;5011977;28;19983;-50
2022/05/18 09:14:38;;;;;;;;;;;;;;;35.03;48.10;99474.00;5029308;28;20566;-45
2022/05/18 09:17:24;;;;;;;;;;;;;;;34.89;47.80;99465.06;5027340;28;19928;-48
2022/05/18 09:20:03;;;;;;;;;;;;;;;34.78;46.96;99465.59;5020495;28;19924;-48
2022/05/18 09:22:28;;;;;;;;;;;;;;;35.26;47.69;99471.06;5029578;28;19917;-46
2022/05/18 09:25:14;;;;;;;;;;;;;;;35.87;45.72;99464.16;5027849;28;19923;-46
2022/05/18 09:27:53;;;;;;;;;;;;;;;35.44;45.76;99472.41;5031708;28;20297;-44
2022/05/18 09:30:24;;;;;;;;;;;;;;;36.25;45.31;99460.97;5029663;28;19952;-44
2022/05/18 09:32:49;;;;;;;;;;;;;;;35.56;44.01;99458.25;5010917;28;19955;-47
2022/05/18 09:35:23;;;;;;;;;;;;;;;35.63;46.71;99466.34;5031824;28;19952;-46
2022/05/18 09:38:01;;;;;;;;;;;;;;;36.04;45.18;99460.06;5027430;28;20015;-49
2022/05/18 09:40:32;;;;;;;;;;;;;;;36.01;46.84;99473.84;5015734;28;19924;-45
2022/05/18 09:42:58;;;;;;;;;;;;;;;35.62;44.25;99467.34;5012502;28;19962;-46
2022/05/18 09:45:24;;;;;;;;;;;;;;;35.75;42.16;99464.72;5026802;28;19917;-48
2022/05/18 09:47:52;;;;;;;;;;;;;;;35.52;43.66;99473.06;5012909;28;20055;-46
2022/05/18 09:50:17;;;;;;;;;;;;;;;35.73;44.10;99461.41;5009770;28;19917;-44
2022/05/18 09:52:43;;;;;;;;;;;;;;;36.38;44.54;99469.00;5029188;28;19917;-46
2022/05/18 09:55:09;;;;;;;;;;;;;;;36.34;44.26;99467.78;5025164;28;21308;-48
2022/05/18 09:57:35;;;;;;;;;;;;;;;36.45;41.84;99461.78;5007328;28;20061;-45
2022/05/18 10:00:05;;;;;;;;;;;;;;;36.50;40.47;99462.00;5013459;28;19921;-47
2022/05/18 10:08:12;;;;;;;;;;;;;;;37.01;41.09;99458.66;5030595;28;19939;-46
2022/05/18 10:10:40;;;;;;;;;;;;;;;36.50;39.69;99453.13;5023937;28;20300;-44
2022/05/18 10:13:12;;;;;;;;;;;;;;;37.50;42.21;99459.16;5008618;28;19921;-44
2022/05/18 10:15:42;;;;;;;;;;;;;;;37.52;38.16;99458.94;5012260;28;19917;-44
2022/05/18 10:18:10;;;;;;;;;;;;;;;37.34;37.21;99452.41;5011050;28;19971;-46
2022/05/18 10:20:35;;;;;;;;;;;;;;;37.81;38.06;99453.00;5024031;28;19917;-48
2022/05/18 10:23:01;;;;;;;;;;;;;;;37.64;38.37;99454.56;5027611;28;20720;-46
2022/05/18 10:25:26;;;;;;;;;;;;;;;37.60;38.08;99459.53;5030501;28;19920;-46
2022/05/18 10:27:52;;;;;;;;;;;;;;;37.73;37.91;99457.84;5024380;28;20521;-46
2022/05/18 10:30:21;;;;;;;;;;;;;;;38.05;38.19;99456.84;5009346;28;19917;-45
2022/05/18 10:33:12;;;;;;;;;;;;;;;37.65;36.52;99448.97;5027618;28;19921;-45
2022/05/18 10:35:38;;;;;;;;;;;;;;;37.70;39.46;99451.00;5023708;28;19920;-44
2022/05/18 10:38:14;;;;;;;;;;;;;;;37.70;38.34;99442.94;5029226;28;19921;-46
2022/05/18 10:40:39;;;;;;;;;;;;;;;36.83;39.37;99450.44;5031292;28;20442;-46
2022/05/18 10:43:17;;;;;;;;;;;;;;;38.28;36.31;99442.00;5029025;28;19921;-47
2022/05/18 10:45:43;;;;;;;;;;;;;;;38.24;35.75;99444.28;5028977;28;19917;-47
2022/05/18 10:48:11;;;;;;;;;;;;;;;38.87;36.01;99445.22;5009674;28;19917;-47
2022/05/18 10:50:37;;;;;;;;;;;;;;;38.48;35.82;99441.88;5024986;28;19917;-48
2022/05/18 10:53:12;;;;;;;;;;;;;;;36.36;39.06;99445.06;5008249;28;19924;-48
2022/05/18 10:55:39;;;;;;;;;;;;;;;37.20;36.42;99434.66;5025571;28;20903;-47
2022/05/18 10:58:09;;;;;;;;;;;;;;;38.64;35.93;99435.91;5007337;28;19991;-47
2022/05/18 11:00:34;;;;;;;;;;;;;;;38.46;34.53;99433.16;5026462;28;20478;-47
2022/05/18 11:03:18;;;;;;;;;;;;;;;37.88;36.83;99434.16;5024088;28;19917;-46
2022/05/18 11:05:46;;;;;;;;;;;;;;;37.71;36.31;99431.19;5022389;28;19975;-45
2022/05/18 11:08:14;;;;;;;;;;;;;;;37.21;36.90;99441.69;5026957;28;19976;-45
2022/05/18 11:10:45;;;;;;;;;;;;;;;36.71;36.28;99431.47;5025409;28;19917;-46
2022/05/18 11:13:15;;;;;;;;;;;;;;;37.24;35.52;99427.84;5026783;28;19921;-45
2022/05/18 11:15:45;;;;;;;;;;;;;;;37.38;35.71;99421.38;5020957;28;19921;-44
2022/05/18 11:18:18;;;;;;;;;;;;;;;37.05;37.21;99422.28;5004634;28;19929;-47
2022/05/18 11:20:49;;;;;;;;;;;;;;;37.61;37.53;99422.72;5005844;28;19946;-46
2022/05/18 11:23:34;;;;;;;;;;;;;;;37.92;35.98;99415.75;5021151;28;19917;-46
2022/05/18 11:26:09;;;;;;;;;;;;;;;37.95;35.60;99410.75;5022823;28;20938;-45
2022/05/18 11:28:38;;;;;;;;;;;;;;;38.39;35.28;99418.91;5010815;28;19920;-46
2022/05/18 11:31:03;;;;;;;;;;;;;;;38.63;35.12;99418.09;5007207;28;20563;-46
2022/05/18 11:33:31;;;;;;;;;;;;;;;39.23;35.29;99414.81;5027358;28;19926;-46
2022/05/18 11:36:28;;;;;;;;;;;;;;;38.58;34.58;99415.25;5025754;28;19917;-46
2022/05/18 11:38:56;;;;;;;;;;;;;;;37.46;32.38;99410.38;4982550;28;19970;-46
2022/05/18 11:41:30;;;;;;;;;;;;;;;35.36;37.01;99411.81;5022080;28;19948;-45
2022/05/18 11:44:02;;;;;;;;;;;;;;;36.87;36.20;99416.75;5007165;28;19921;-44
2022/05/18 11:46:30;;;;;;;;;;;;;;;37.32;35.81;99414.19;5027570;28;20350;-45
2022/05/18 11:49:13;;;;;;;;;;;;;;;38.95;36.99;99414.50;5025725;28;20048;-48
2022/05/18 11:51:39;;;;;;;;;;;;;;;39.14;35.16;99396.44;5029033;28;19960;-45
2022/05/18 11:54:13;;;;;;;;;;;;;;;38.90;34.52;99401.69;5028862;28;20052;-45
2022/05/18 11:56:45;;;;;;;;;;;;;;;39.43;33.54;99393.00;5026397;28;19990;-45
2022/05/18 11:59:39;;;;;;;;;;;;;;;40.05;33.08;99389.22;5008193;28;19971;-46
2022/05/18 12:02:14;;;;;;;;;;;;;;;38.96;34.55;99394.59;5026194;28;19924;-45
2022/05/18 12:04:53;;;;;;;;;;;;;;;38.34;34.10;99384.59;5027687;28;19917;-48
2022/05/18 12:07:24;;;;;;;;;;;;;;;38.78;33.40;99388.16;5005732;28;20131;-47
2022/05/18 12:09:55;;;;;;;;;;;;;;;39.35;36.58;99387.91;5028561;28;19956;-45
2022/05/18 12:12:39;;;;;;;;;;;;;;;40.09;38.11;99390.41;5011091;28;19978;-47
2022/05/18 12:15:23;;;;;;;;;;;;;;;40.35;34.18;99379.19;5025495;28;20333;-47
2022/05/18 12:17:52;;;;;;;;;;;;;;;40.14;34.46;99390.50;5025950;28;19932;-48
2022/05/18 12:20:24;;;;;;;;;;;;;;;39.59;32.20;99388.03;5010213;28;19935;-47
2022/05/18 12:22:50;;;;;;;;;;;;;;;38.99;35.57;99384.19;5028860;28;19988;-45
2022/05/18 12:25:16;;;;;;;;;;;;;;;39.38;32.62;99386.66;5006941;28;19920;-46
2022/05/18 12:27:42;;;;;;;;;;;;;;;39.78;31.26;99386.91;5010082;28;19921;-45
2022/05/18 12:30:08;;;;;;;;;;;;;;;40.51;31.43;99382.22;5014011;28;20696;-45
2022/05/18 12:32:33;;;;;;;;;;;;;;;41.72;33.22;99378.75;5009988;28;19921;-45
2022/05/18 12:35:16;;;;;;;;;;;;;;;40.58;30.83;99385.66;5028669;28;19917;-47
2022/05/18 12:37:50;;;;;;;;;;;;;;;41.61;32.20;99385.09;5009117;28;20039;-45
2022/05/18 12:40:16;;;;;;;;;;;;;;;41.07;30.62;99380.75;5030652;28;19975;-46
2022/05/18 12:42:45;;;;;;;;;;;;;;;41.68;33.33;99383.84;5031013;28;19927;-47
2022/05/18 12:45:14;;;;;;;;;;;;;;;42.60;33.07;99379.09;5010858;28;19943;-45
2022/05/18 12:47:52;;;;;;;;;;;;;;;42.34;29.43;99377.91;5011084;28;19921;-46
2022/05/18 12:50:29;;;;;;;;;;;;;;;42.55;31.74;99381.75;5006575;28;19974;-47
2022/05/18 12:52:55;;;;;;;;;;;;;;;42.72;32.77;99376.28;5015518;28;19916;-46
2022/05/18 12:55:20;;;;;;;;;;;;;;;41.20;32.75;99381.59;5013900;28;20043;-45
2022/05/18 12:57:51;;;;;;;;;;;;;;;42.27;31.67;99380.78;5028477;28;20003;-45
2022/05/18 13:00:25;;;;;;;;;;;;;;;41.05;32.76;99384.75;5025214;28;20443;-45
2022/05/18 13:02:55;;;;;;;;;;;;;;;41.07;32.90;99391.56;5027839;28;20508;-44
2022/05/18 13:05:26;;;;;;;;;;;;;;;39.85;30.96;99387.66;5034629;28;20305;-47